createdAt,value
2022-07-29T00:01:04.128Z,61.06
2022-07-29T00:03:31.108Z,61.80
2022-07-29T00:05:57.886Z,61.64
2022-07-29T00:08:24.529Z,61.71
2022-07-29T00:10:52.079Z,61.42
2022-07-29T00:13:18.790Z,61.69
2022-07-29T00:15:59.082Z,61.69
2022-07-29T00:18:31.778Z,62.06
2022-07-29T00:20:58.444Z,62.23
2022-07-29T00:23:25.156Z,61.85
2022-07-29T00:25:51.909Z,61.74
2022-07-29T00:28:18.677Z,61.97
2022-07-29T00:30:45.411Z,61.67
2022-07-29T00:33:12.168Z,61.70
2022-07-29T00:35:44.613Z,61.02
2022-07-29T00:38:16.289Z,60.87
2022-07-29T00:40:44.633Z,60.61
2022-07-29T00:43:12.762Z,60.99
2022-07-29T00:45:39.682Z,61.38
2022-07-29T00:48:07.629Z,60.89
2022-07-29T00:50:34.470Z,60.61
2022-07-29T00:53:02.057Z,60.85
2022-07-29T00:55:29.871Z,60.75
2022-07-29T00:57:58.046Z,61.07
2022-07-29T01:00:27.149Z,60.65
2022-07-29T01:02:53.983Z,60.26
2022-07-29T01:05:23.417Z,60.13
2022-07-29T01:07:53.614Z,59.36
2022-07-29T01:10:22.191Z,59.22
2022-07-29T01:12:51.286Z,59.31
2022-07-29T01:15:18.385Z,59.37
2022-07-29T01:18:18.176Z,59.09
2022-07-29T01:21:18.435Z,58.43
2022-07-29T01:24:00.169Z,59.01
2022-07-29T01:26:43.801Z,58.77
2022-07-29T01:29:38.573Z,57.94
2022-07-29T01:32:22.535Z,57.75
2022-07-29T01:35:10.011Z,58.58
2022-07-29T01:37:44.021Z,58.32
2022-07-29T01:40:25.081Z,58.02
2022-07-29T01:42:55.810Z,57.43
2022-07-29T01:45:39.908Z,57.88
2022-07-29T01:48:22.574Z,57.28
2022-07-29T01:50:58.752Z,57.65
2022-07-29T01:53:36.418Z,57.92
2022-07-29T01:56:06.075Z,58.10
2022-07-29T01:58:33.933Z,58.97
2022-07-29T02:01:01.645Z,58.61
2022-07-29T02:03:30.304Z,59.03
2022-07-29T02:05:58.523Z,59.91
2022-07-29T02:08:26.242Z,60.65
2022-07-29T02:10:54.672Z,60.79
2022-07-29T02:13:24.510Z,61.42
2022-07-29T02:15:53.010Z,60.51
2022-07-29T02:18:23.696Z,61.34
2022-07-29T02:20:53.845Z,60.94
2022-07-29T02:23:23.765Z,61.30
2022-07-29T02:25:53.836Z,61.89
2022-07-29T02:28:23.803Z,62.10
2022-07-29T02:30:53.437Z,61.87
2022-07-29T02:33:21.957Z,62.45
2022-07-29T02:35:49.805Z,62.37
2022-07-29T02:38:36.161Z,62.65
2022-07-29T02:41:09.694Z,62.98
2022-07-29T02:43:37.234Z,62.48
2022-07-29T02:46:28.006Z,61.96
2022-07-29T02:49:05.330Z,61.17
2022-07-29T02:52:05.925Z,61.16
2022-07-29T02:54:42.074Z,62.69
2022-07-29T02:57:54.549Z,61.05
2022-07-29T03:00:25.608Z,62.34
2022-07-29T03:02:55.468Z,63.10
2022-07-29T03:05:23.620Z,62.34
2022-07-29T03:08:03.869Z,61.94
2022-07-29T03:10:31.435Z,62.70
2022-07-29T03:12:59.219Z,62.75
2022-07-29T03:15:27.085Z,62.62
2022-07-29T03:17:54.811Z,62.49
2022-07-29T03:20:21.989Z,63.33
2022-07-29T03:22:49.259Z,63.46
2022-07-29T03:25:17.713Z,64.14
2022-07-29T03:27:45.360Z,65.19
2022-07-29T03:30:18.117Z,65.07
2022-07-29T03:32:48.831Z,64.36
2022-07-29T03:35:17.539Z,63.93
2022-07-29T03:37:45.418Z,63.86
2022-07-29T03:40:17.581Z,64.30
2022-07-29T03:42:45.762Z,64.53
2022-07-29T03:45:16.546Z,64.97
2022-07-29T03:47:50.856Z,64.89
2022-07-29T03:50:21.330Z,64.93
2022-07-29T03:52:49.059Z,65.57
2022-07-29T03:55:16.664Z,66.01
2022-07-29T03:57:45.576Z,67.01
2022-07-29T04:00:12.992Z,66.42
2022-07-29T04:02:41.212Z,66.92
2022-07-29T04:05:13.724Z,67.10
2022-07-29T04:07:41.387Z,66.77
2022-07-29T04:10:08.926Z,67.04
2022-07-29T04:12:36.207Z,67.59
2022-07-29T04:15:05.037Z,67.24
2022-07-29T04:17:31.963Z,67.72
2022-07-29T04:19:58.938Z,67.49
2022-07-29T04:22:25.680Z,66.99
2022-07-29T04:24:54.101Z,68.18
2022-07-29T04:27:20.825Z,67.65
2022-07-29T04:29:56.765Z,67.10
2022-07-29T04:32:25.241Z,66.41
2022-07-29T04:34:52.245Z,65.08
2022-07-29T04:37:18.970Z,64.78
2022-07-29T04:39:45.671Z,64.60
2022-07-29T04:42:12.392Z,64.21
2022-07-29T04:44:39.999Z,63.80
2022-07-29T04:47:10.216Z,62.85
2022-07-29T04:49:39.513Z,61.88
2022-07-29T04:52:07.012Z,60.52
2022-07-29T04:54:34.181Z,62.39
2022-07-29T04:57:01.001Z,62.99
2022-07-29T04:59:28.129Z,62.50
2022-07-29T05:01:55.020Z,62.64
2022-07-29T05:04:21.771Z,63.44
2022-07-29T05:06:48.777Z,62.98
2022-07-29T05:09:15.767Z,60.63
2022-07-29T05:11:42.486Z,60.58
2022-07-29T05:14:09.255Z,59.24
2022-07-29T05:16:36.213Z,58.89
2022-07-29T05:19:03.010Z,61.26
2022-07-29T05:21:29.651Z,60.16
2022-07-29T05:23:56.373Z,57.60
2022-07-29T05:26:23.308Z,59.64
2022-07-29T05:28:50.182Z,58.35
2022-07-29T05:31:17.069Z,58.77
2022-07-29T05:33:43.836Z,57.05
2022-07-29T05:36:11.260Z,55.83
2022-07-29T05:38:38.419Z,53.87
2022-07-29T05:41:06.309Z,54.74
2022-07-29T05:43:33.846Z,55.61
2022-07-29T05:46:00.704Z,52.52
2022-07-29T05:48:28.201Z,53.19
2022-07-29T05:50:55.784Z,51.95
2022-07-29T05:53:22.985Z,50.86
2022-07-29T05:55:50.592Z,48.73
2022-07-29T05:58:17.610Z,47.83
2022-07-29T06:00:45.406Z,46.50
2022-07-29T06:03:12.527Z,48.89
2022-07-29T06:05:39.268Z,46.30
2022-07-29T06:08:09.237Z,45.50
2022-07-29T06:10:36.629Z,43.78
2022-07-29T06:13:03.535Z,44.99
2022-07-29T06:15:30.266Z,40.62
2022-07-29T06:17:59.269Z,40.34
2022-07-29T06:20:31.445Z,42.13
2022-07-29T06:22:58.669Z,38.23
2022-07-29T06:25:25.395Z,38.53
2022-07-29T06:27:52.117Z,38.17
2022-07-29T06:30:18.992Z,38.33
2022-07-29T06:32:46.015Z,38.20
2022-07-29T06:35:38.808Z,39.00
2022-07-29T06:37:59.855Z,35.57
2022-07-29T06:40:45.722Z,37.26
2022-07-29T06:43:12.484Z,35.50
2022-07-29T06:45:42.444Z,37.60
2022-07-29T06:48:10.371Z,37.02
2022-07-29T06:50:37.167Z,36.66
2022-07-29T06:53:04.475Z,38.68
2022-07-29T06:55:31.240Z,37.72
2022-07-29T06:57:57.971Z,38.03
2022-07-29T07:00:24.770Z,35.43
2022-07-29T07:02:52.858Z,36.56
2022-07-29T07:05:19.594Z,36.48
2022-07-29T07:07:46.225Z,35.24
2022-07-29T07:10:13.061Z,35.80
2022-07-29T07:12:39.905Z,34.94
2022-07-29T07:15:07.247Z,35.29
2022-07-29T07:17:33.933Z,34.41
2022-07-29T07:20:00.641Z,34.68
2022-07-29T07:22:28.297Z,34.12
2022-07-29T07:24:54.985Z,33.94
2022-07-29T07:27:21.656Z,34.19
2022-07-29T07:29:48.354Z,34.56
2022-07-29T07:32:17.239Z,34.35
2022-07-29T07:34:44.541Z,34.90
2022-07-29T07:37:11.424Z,35.17
2022-07-29T07:39:38.064Z,34.00
2022-07-29T07:42:04.812Z,34.42
2022-07-29T07:44:31.498Z,33.38
2022-07-29T07:46:58.274Z,33.14
2022-07-29T07:49:30.755Z,32.10
2022-07-29T07:51:57.818Z,33.16
2022-07-29T07:54:24.515Z,31.77
2022-07-29T07:56:53.065Z,33.12
2022-07-29T07:59:22.271Z,33.00
2022-07-29T08:01:55.668Z,33.84
2022-07-29T08:04:28.036Z,34.56
2022-07-29T08:06:58.726Z,33.39
2022-07-29T08:09:29.805Z,33.60
2022-07-29T08:11:59.370Z,32.88
2022-07-29T08:14:26.251Z,33.64
2022-07-29T08:16:53.008Z,33.37
2022-07-29T08:19:19.714Z,33.85
2022-07-29T08:21:46.486Z,34.49
2022-07-29T08:24:31.626Z,32.87
2022-07-29T08:26:58.317Z,34.23
2022-07-29T08:29:24.980Z,34.62
2022-07-29T08:31:51.871Z,33.63
2022-07-29T08:34:18.721Z,33.15
2022-07-29T08:36:52.728Z,33.30
2022-07-29T08:39:19.381Z,32.88
2022-07-29T08:41:56.774Z,33.08
2022-07-29T08:44:30.373Z,32.99
2022-07-29T08:46:58.041Z,34.29
2022-07-29T08:49:24.986Z,33.02
2022-07-29T08:51:52.442Z,33.71
2022-07-29T08:54:20.049Z,35.50
2022-07-29T08:56:51.096Z,34.07
2022-07-29T08:59:22.007Z,34.81
2022-07-29T09:01:52.264Z,34.24
2022-07-29T09:04:20.618Z,33.79
2022-07-29T09:06:52.880Z,33.18
2022-07-29T09:09:19.738Z,34.38
2022-07-29T09:11:46.468Z,33.00
2022-07-29T09:14:14.730Z,33.64
2022-07-29T09:16:59.735Z,32.42
2022-07-29T09:19:35.924Z,31.89
2022-07-29T09:22:06.104Z,32.04
2022-07-29T09:24:45.210Z,32.34
2022-07-29T09:27:23.636Z,31.42
2022-07-29T09:30:30.320Z,31.80
2022-07-29T09:33:02.255Z,31.90
2022-07-29T09:35:30.575Z,32.07
2022-07-29T09:37:58.109Z,31.97
2022-07-29T09:40:28.052Z,32.60
2022-07-29T09:42:58.536Z,32.39
2022-07-29T09:45:33.678Z,31.87
2022-07-29T09:48:04.160Z,31.49
2022-07-29T09:50:39.912Z,33.33
2022-07-29T09:53:06.976Z,31.62
2022-07-29T09:55:33.634Z,31.82
2022-07-29T09:58:18.527Z,31.45
2022-07-29T10:00:47.240Z,31.02
2022-07-29T10:03:15.544Z,31.41
2022-07-29T10:05:43.181Z,31.53
2022-07-29T10:08:11.154Z,30.75
2022-07-29T10:10:42.755Z,30.69
2022-07-29T10:13:16.645Z,30.22
2022-07-29T10:15:46.345Z,29.48
2022-07-29T10:18:14.978Z,30.44
2022-07-29T10:20:41.981Z,30.04
2022-07-29T10:23:10.286Z,29.24
2022-07-29T10:25:37.237Z,29.64
2022-07-29T10:28:04.105Z,30.83
2022-07-29T10:30:32.032Z,30.38
2022-07-29T10:33:07.970Z,29.62
2022-07-29T10:35:41.171Z,29.19
2022-07-29T10:38:30.434Z,31.47
2022-07-29T10:41:32.132Z,30.12
2022-07-29T10:44:23.868Z,29.55
2022-07-29T10:46:51.690Z,29.95
2022-07-29T10:49:25.194Z,28.28
2022-07-29T10:52:01.558Z,29.20
2022-07-29T10:54:34.782Z,28.55
2022-07-29T10:57:54.242Z,27.96
2022-07-29T11:00:30.170Z,27.76
2022-07-29T11:02:59.414Z,27.46
2022-07-29T11:08:26.026Z,28.50
2022-07-29T11:11:20.288Z,27.22
2022-07-29T11:13:53.362Z,28.17
2022-07-29T11:16:25.141Z,26.66
2022-07-29T11:19:21.517Z,27.56
2022-07-29T11:21:58.289Z,28.04
2022-07-29T11:24:32.225Z,28.13
2022-07-29T11:27:17.995Z,27.29
2022-07-29T11:30:01.296Z,27.31
2022-07-29T11:32:39.982Z,27.47
2022-07-29T11:35:17.313Z,28.19
2022-07-29T11:37:52.566Z,26.89
2022-07-29T11:40:24.913Z,26.99
2022-07-29T11:42:52.509Z,27.02
2022-07-29T11:45:43.336Z,26.88
2022-07-29T11:48:29.147Z,27.40
2022-07-29T11:50:59.580Z,27.45
2022-07-29T11:53:29.269Z,27.81
2022-07-29T11:56:00.380Z,27.41
2022-07-29T11:58:28.467Z,27.28
2022-07-29T12:00:56.264Z,27.21
2022-07-29T12:03:33.397Z,27.18
2022-07-29T12:06:02.823Z,27.59
2022-07-29T12:08:30.663Z,27.85
2022-07-29T12:10:57.463Z,27.91
2022-07-29T12:13:36.997Z,27.71
2022-07-29T12:16:04.273Z,27.80
2022-07-29T12:18:30.993Z,27.62
2022-07-29T12:21:03.350Z,27.58
2022-07-29T12:23:34.291Z,28.23
2022-07-29T12:26:05.355Z,27.41
2022-07-29T12:28:39.482Z,27.62
2022-07-29T12:31:06.621Z,26.90
2022-07-29T12:33:36.039Z,26.68
2022-07-29T12:36:07.043Z,27.51
2022-07-29T12:38:36.027Z,28.35
2022-07-29T12:41:04.729Z,28.31
2022-07-29T12:43:32.308Z,27.91
2022-07-29T12:46:13.587Z,27.47
2022-07-29T12:48:43.493Z,28.21
2022-07-29T12:51:11.163Z,27.87
2022-07-29T12:53:38.276Z,28.64
2022-07-29T12:56:20.682Z,28.69
2022-07-29T12:58:51.151Z,29.30
2022-07-29T13:01:21.166Z,28.16
2022-07-29T13:04:03.995Z,28.99
2022-07-29T13:06:46.064Z,29.09
2022-07-29T13:09:23.524Z,28.95
2022-07-29T13:11:54.608Z,28.91
2022-07-29T13:14:51.211Z,29.08
2022-07-29T13:17:28.446Z,30.06
2022-07-29T13:20:15.313Z,30.56
2022-07-29T13:22:43.423Z,29.68
2022-07-29T13:25:10.699Z,29.99
2022-07-29T13:27:39.441Z,29.89
2022-07-29T13:30:09.950Z,30.37
2022-07-29T13:32:39.942Z,30.44
2022-07-29T13:35:09.057Z,30.89
2022-07-29T13:37:39.478Z,30.37
2022-07-29T13:40:08.379Z,30.99
2022-07-29T13:42:35.300Z,31.70
2022-07-29T13:45:03.070Z,30.57
2022-07-29T13:47:32.099Z,30.53
2022-07-29T13:50:00.977Z,30.97
2022-07-29T13:52:27.943Z,29.89
2022-07-29T13:54:54.582Z,30.83
2022-07-29T13:57:21.254Z,30.65
2022-07-29T13:59:52.011Z,30.67
2022-07-29T14:02:20.872Z,31.56
2022-07-29T14:04:47.747Z,31.02
2022-07-29T14:07:16.368Z,30.37
2022-07-29T14:09:43.562Z,31.19
2022-07-29T14:12:10.781Z,31.23
2022-07-29T14:14:37.795Z,30.72
2022-07-29T14:17:07.357Z,30.41
2022-07-29T14:19:36.873Z,30.78
2022-07-29T14:22:08.682Z,30.47
2022-07-29T14:24:37.802Z,30.93
2022-07-29T14:27:09.119Z,31.20
2022-07-29T14:29:38.085Z,31.57
2022-07-29T14:32:10.171Z,31.19
2022-07-29T14:34:38.275Z,31.53
2022-07-29T14:37:08.369Z,31.01
2022-07-29T14:39:42.516Z,31.41
2022-07-29T14:42:12.872Z,31.57
2022-07-29T14:44:41.372Z,31.77
2022-07-29T14:47:08.697Z,31.81
2022-07-29T14:49:36.167Z,31.63
2022-07-29T14:52:03.543Z,31.94
2022-07-29T14:54:30.272Z,32.57
2022-07-29T14:56:58.434Z,32.05
2022-07-29T14:59:26.259Z,31.85
2022-07-29T15:01:53.331Z,32.58
2022-07-29T15:04:20.357Z,32.25
2022-07-29T15:06:49.261Z,31.58
2022-07-29T15:09:16.012Z,31.72
2022-07-29T15:11:42.680Z,31.37
2022-07-29T15:14:09.382Z,32.02
2022-07-29T15:16:43.558Z,31.71
2022-07-29T15:19:11.197Z,32.17
2022-07-29T15:21:48.097Z,32.03
2022-07-29T15:24:17.407Z,32.45
2022-07-29T15:26:44.597Z,31.56
2022-07-29T15:29:11.425Z,31.23
2022-07-29T15:31:38.275Z,31.87
2022-07-29T15:34:05.949Z,31.47
2022-07-29T15:36:51.543Z,31.60
2022-07-29T15:39:20.588Z,31.87
2022-07-29T15:41:47.469Z,32.01
2022-07-29T15:44:14.140Z,32.01
2022-07-29T15:47:00.574Z,32.03
2022-07-29T15:49:47.402Z,31.98
2022-07-29T15:52:18.664Z,32.35
2022-07-29T15:54:46.003Z,32.24
2022-07-29T15:57:13.385Z,32.38
2022-07-29T15:59:40.044Z,32.02
2022-07-29T16:02:07.099Z,31.74
2022-07-29T16:04:33.996Z,31.28
2022-07-29T16:07:00.971Z,31.33
2022-07-29T16:09:55.846Z,31.41
2022-07-29T16:12:22.546Z,31.60
2022-07-29T16:14:51.418Z,31.19
2022-07-29T16:17:18.719Z,31.46
2022-07-29T16:19:45.724Z,31.92
2022-07-29T16:22:13.083Z,31.39
2022-07-29T16:24:39.770Z,31.79
2022-07-29T16:27:06.760Z,32.27
2022-07-29T16:29:33.597Z,31.72
2022-07-29T16:32:01.086Z,31.95
2022-07-29T16:34:27.795Z,32.12
2022-07-29T16:36:54.499Z,32.23
2022-07-29T16:39:21.126Z,32.27
2022-07-29T16:41:47.960Z,32.77
2022-07-29T16:44:16.022Z,32.86
2022-07-29T16:46:44.852Z,32.90
2022-07-29T16:49:11.763Z,33.12
2022-07-29T16:51:45.779Z,33.26
2022-07-29T16:54:12.426Z,33.20
2022-07-29T16:56:39.456Z,34.04
2022-07-29T16:59:06.189Z,34.06
2022-07-29T17:01:32.887Z,34.02
2022-07-29T17:04:08.731Z,34.10
2022-07-29T17:06:40.360Z,34.33
2022-07-29T17:09:09.352Z,34.63
2022-07-29T17:11:52.453Z,35.30
2022-07-29T17:14:23.304Z,34.37
2022-07-29T17:17:01.074Z,34.67
2022-07-29T17:19:33.880Z,35.04
2022-07-29T17:22:10.444Z,35.23
2022-07-29T17:24:40.878Z,35.93
2022-07-29T17:27:08.629Z,35.90
2022-07-29T17:29:35.402Z,35.43
2022-07-29T17:32:02.213Z,35.31
2022-07-29T17:34:28.913Z,35.44
2022-07-29T17:36:55.951Z,36.16
2022-07-29T17:39:22.940Z,35.61
2022-07-29T17:41:49.717Z,35.84
2022-07-29T17:44:16.359Z,37.79
2022-07-29T17:46:43.161Z,36.41
2022-07-29T17:49:11.561Z,37.22
2022-07-29T17:51:39.824Z,37.20
2022-07-29T17:54:06.535Z,37.54
2022-07-29T17:56:33.508Z,37.15
2022-07-29T17:59:01.694Z,38.12
2022-07-29T18:01:28.948Z,36.63
2022-07-29T18:03:59.991Z,37.25
2022-07-29T18:06:28.261Z,38.11
2022-07-29T18:08:55.771Z,38.28
2022-07-29T18:11:24.918Z,39.15
2022-07-29T18:13:53.889Z,37.59
2022-07-29T18:16:20.620Z,37.87
2022-07-29T18:18:50.349Z,38.84
2022-07-29T18:21:17.118Z,38.87
2022-07-29T18:24:04.000Z,38.82
2022-07-29T18:26:30.718Z,38.49
2022-07-29T18:28:57.551Z,39.43
2022-07-29T18:31:24.388Z,38.77
2022-07-29T18:33:51.167Z,39.11
2022-07-29T18:36:18.135Z,39.14
2022-07-29T18:38:44.794Z,39.45
2022-07-29T18:41:11.606Z,40.16
2022-07-29T18:43:38.302Z,40.46
2022-07-29T18:46:06.680Z,39.84
2022-07-29T18:48:34.358Z,39.61
2022-07-29T18:51:01.847Z,40.61
2022-07-29T18:53:28.537Z,39.70
2022-07-29T18:56:00.164Z,40.79
2022-07-29T18:58:27.221Z,39.96
2022-07-29T19:00:53.888Z,41.29
2022-07-29T19:03:20.547Z,40.90
2022-07-29T19:05:47.397Z,41.05
2022-07-29T19:08:16.671Z,41.16
2022-07-29T19:10:43.520Z,41.10
2022-07-29T19:13:10.244Z,40.82
2022-07-29T19:15:40.215Z,41.62
2022-07-29T19:18:07.255Z,41.04
2022-07-29T19:20:34.210Z,41.94
2022-07-29T19:23:00.918Z,41.40
2022-07-29T19:25:27.561Z,42.29
2022-07-29T19:27:54.296Z,41.32
2022-07-29T19:30:21.161Z,41.31
2022-07-29T19:32:47.908Z,42.20
2022-07-29T19:35:25.392Z,42.24
2022-07-29T19:37:52.553Z,42.68
2022-07-29T19:40:20.153Z,42.65
2022-07-29T19:42:48.343Z,42.58
2022-07-29T19:45:15.061Z,41.96
2022-07-29T19:47:41.738Z,42.96
2022-07-29T19:50:09.252Z,42.37
2022-07-29T19:52:37.259Z,42.69
2022-07-29T19:55:07.907Z,42.71
2022-07-29T19:57:40.550Z,42.89
2022-07-29T20:00:11.428Z,42.92
2022-07-29T20:02:39.437Z,43.13
2022-07-29T20:05:06.843Z,43.23
2022-07-29T20:07:34.021Z,42.79
2022-07-29T20:10:00.777Z,43.92
2022-07-29T20:12:27.469Z,43.75
2022-07-29T20:14:54.246Z,43.03
2022-07-29T20:17:22.441Z,42.50
2022-07-29T20:19:50.089Z,43.32
2022-07-29T20:22:21.117Z,43.83
2022-07-29T20:24:48.300Z,43.91
2022-07-29T20:27:14.998Z,43.73
2022-07-29T20:29:41.933Z,44.58
2022-07-29T20:32:08.663Z,44.45
2022-07-29T20:34:35.513Z,43.51
2022-07-29T20:37:02.801Z,43.77
2022-07-29T20:39:29.698Z,43.65
2022-07-29T20:41:56.486Z,43.66
2022-07-29T20:44:24.436Z,43.58
2022-07-29T20:46:51.314Z,43.33
2022-07-29T20:49:18.117Z,43.27
2022-07-29T20:51:45.051Z,42.67
2022-07-29T20:54:12.602Z,43.31
2022-07-29T20:56:39.901Z,43.68
2022-07-29T20:59:06.617Z,44.49
2022-07-29T21:01:33.547Z,44.69
2022-07-29T21:04:01.317Z,44.72
2022-07-29T21:06:27.989Z,44.84
2022-07-29T21:08:57.878Z,45.31
2022-07-29T21:11:43.406Z,44.96
2022-07-29T21:14:22.327Z,44.59
2022-07-29T21:16:50.313Z,45.75
2022-07-29T21:19:17.420Z,45.34
2022-07-29T21:21:44.167Z,45.93
2022-07-29T21:24:12.018Z,46.83
2022-07-29T21:26:39.002Z,47.16
2022-07-29T21:29:05.917Z,47.90
2022-07-29T21:31:32.563Z,47.88
2022-07-29T21:33:59.232Z,47.89
2022-07-29T21:36:47.717Z,48.20
2022-07-29T21:39:12.558Z,47.69
2022-07-29T21:41:39.333Z,48.70
2022-07-29T21:44:05.948Z,49.46
2022-07-29T21:46:32.726Z,49.07
2022-07-29T21:48:59.537Z,49.67
2022-07-29T21:51:26.241Z,50.26
2022-07-29T21:53:53.122Z,49.99
2022-07-29T21:56:19.996Z,49.95
2022-07-29T21:58:49.251Z,50.25
2022-07-29T22:01:16.085Z,51.50
2022-07-29T22:03:42.777Z,51.75
2022-07-29T22:06:11.208Z,51.58
2022-07-29T22:08:45.696Z,51.88
2022-07-29T22:11:13.395Z,52.38
2022-07-29T22:13:40.328Z,52.78
2022-07-29T22:16:07.369Z,53.92
2022-07-29T22:18:34.286Z,54.90
2022-07-29T22:21:01.018Z,54.73
2022-07-29T22:23:27.712Z,55.01
2022-07-29T22:25:54.371Z,55.84
2022-07-29T22:28:21.264Z,55.72
2022-07-29T22:30:48.038Z,55.05
2022-07-29T22:33:17.724Z,55.15
2022-07-29T22:35:45.220Z,55.10
2022-07-29T22:38:15.527Z,54.76
2022-07-29T22:40:42.276Z,55.19
2022-07-29T22:43:10.723Z,54.56
2022-07-29T22:45:37.506Z,55.12
2022-07-29T22:48:05.354Z,56.12
2022-07-29T22:50:32.044Z,55.81
2022-07-29T22:52:58.702Z,55.70
2022-07-29T22:55:25.357Z,55.41
2022-07-29T22:57:52.085Z,55.25
2022-07-29T23:00:19.157Z,55.87
2022-07-29T23:02:45.821Z,56.77
2022-07-29T23:05:15.991Z,58.05
2022-07-29T23:07:43.000Z,56.80
2022-07-29T23:10:09.934Z,57.20
2022-07-29T23:12:36.849Z,57.65
2022-07-29T23:15:04.880Z,56.71
2022-07-29T23:17:32.130Z,56.49
2022-07-29T23:20:08.044Z,57.30
2022-07-29T23:22:36.069Z,57.32
2022-07-29T23:25:03.126Z,57.57
2022-07-29T23:27:30.029Z,58.40
2022-07-29T23:29:56.760Z,58.17
2022-07-29T23:32:23.399Z,59.34
2022-07-29T23:34:50.055Z,58.61
2022-07-29T23:37:16.673Z,58.72
2022-07-29T23:39:43.375Z,60.94
2022-07-29T23:42:09.998Z,60.65
2022-07-29T23:44:36.809Z,60.98
2022-07-29T23:47:03.909Z,61.43
2022-07-29T23:49:31.062Z,62.62
2022-07-29T23:51:57.696Z,63.18
2022-07-29T23:54:24.465Z,63.86
2022-07-29T23:56:51.082Z,64.03
2022-07-29T23:59:17.920Z,64.34
